Time;durP1;ratioP1;P1;durP2;ratioP2;P2;SDS_P1;SDS_P2;PMS_P1;PMS_P2;Temp;Humidity;BMP_temperature;BMP_pressure;BME280_temperature;BME280_humidity;BME280_pressure;Samples;Min_cycle;Max_cycle;Signal;HPM_P1;HPM_P2
2023/07/05 00:01:39;;;;;;;9.93;3.80;;;16.00;99.90;;;;;;15467427;23;20024;-38
2023/07/05 00:07:41;;;;;;;11.93;3.50;;;16.00;99.90;;;;;;15445713;23;20090;-40
2023/07/05 00:13:43;;;;;;;9.98;3.92;;;15.90;99.90;;;;;;15463473;23;20095;-38
2023/07/05 00:19:53;;;;;;;10.05;4.25;;;16.00;99.90;;;;;;15467458;23;20028;-37
2023/07/05 00:25:55;;;;;;;9.48;3.80;;;16.10;99.90;;;;;;15473717;22;20024;-36
2023/07/05 00:31:57;;;;;;;13.15;4.18;;;16.30;99.90;;;;;;15488690;22;20024;-39
2023/07/05 00:37:59;;;;;;;9.52;4.25;;;16.40;99.90;;;;;;15491538;23;20047;-37
2023/07/05 00:44:01;;;;;;;9.20;3.63;;;16.50;99.90;;;;;;15498203;22;20024;-38
2023/07/05 00:50:19;;;;;;;8.00;3.78;;;16.60;99.90;;;;;;15496464;22;20095;-38
2023/07/05 00:56:33;;;;;;;10.48;4.35;;;16.80;99.90;;;;;;15472197;23;20044;-38
2023/07/05 01:02:39;;;;;;;13.10;4.85;;;16.70;99.90;;;;;;15468677;23;20024;-37
2023/07/05 01:08:41;;;;;;;7.55;4.43;;;16.50;99.90;;;;;;15494364;23;20024;-37
2023/07/05 01:15:02;;;;;;;8.40;4.85;;;16.40;99.90;;;;;;15465866;23;20708;-37
2023/07/05 01:21:14;;;;;;;14.35;4.93;;;16.30;99.90;;;;;;15497278;23;20035;-39
2023/07/05 01:27:38;;;;;;;7.57;4.57;;;16.20;99.90;;;;;;15481479;23;20020;-37
2023/07/05 01:33:44;;;;;;;;;;;15.80;99.90;;;;;;15455805;22;20532;-38
2023/07/05 01:39:46;;;;;;;12.05;5.50;;;15.60;99.90;;;;;;15453210;23;19919;-38
2023/07/05 01:46:03;;;;;;;9.45;5.90;;;15.50;99.90;;;;;;15431338;23;20030;-39
2023/07/05 01:52:34;;;;;;;12.55;5.72;;;15.30;99.90;;;;;;15437654;22;20024;-37
2023/07/05 01:58:42;;;;;;;10.48;5.38;;;15.50;99.90;;;;;;15402138;23;20023;-37
2023/07/05 02:04:45;;;;;;;12.45;6.13;;;15.60;99.90;;;;;;15474163;23;20485;-37
2023/07/05 02:10:47;;;;;;;9.10;5.65;;;15.60;99.90;;;;;;15444420;23;20114;-38
2023/07/05 02:16:49;;;;;;;11.38;5.90;;;15.60;99.90;;;;;;15471488;23;20035;-38
2023/07/05 02:22:51;;;;;;;11.73;6.25;;;15.50;99.90;;;;;;15468849;23;20027;-38
2023/07/05 02:28:53;;;;;;;17.85;6.30;;;15.40;99.90;;;;;;15482432;23;20027;-38
2023/07/05 02:35:01;;;;;;;10.52;6.13;;;15.40;99.90;;;;;;15501490;22;20035;-38
2023/07/05 02:41:03;;;;;;;8.93;5.85;;;15.40;99.90;;;;;;15494552;22;20028;-38
2023/07/05 02:47:05;;;;;;;10.80;6.45;;;15.40;99.90;;;;;;15501148;22;20447;-38
2023/07/05 02:53:10;;;;;;;10.25;5.75;;;15.30;99.90;;;;;;15498622;22;20553;-37
2023/07/05 02:59:12;;;;;;;12.07;6.35;;;15.30;99.90;;;;;;15496274;23;20023;-37
2023/07/05 03:05:14;;;;;;;10.63;5.93;;;15.40;99.90;;;;;;15492746;22;20343;-38
2023/07/05 03:11:16;;;;;;;12.52;6.38;;;15.50;99.90;;;;;;15494541;22;20024;-38
2023/07/05 03:17:19;;;;;;;13.32;6.90;;;15.20;99.90;;;;;;15496324;23;20027;-38
2023/07/05 03:23:21;;;;;;;9.40;5.45;;;15.00;99.90;;;;;;15495010;22;20082;-38
2023/07/05 03:29:23;;;;;;;10.00;6.35;;;14.90;99.90;;;;;;15465627;23;20829;-38
2023/07/05 03:35:25;;;;;;;10.60;6.07;;;14.90;99.90;;;;;;15454905;23;20090;-38
2023/07/05 03:41:28;;;;;;;8.77;5.57;;;14.80;99.90;;;;;;15443364;23;20028;-38
2023/07/05 03:47:30;;;;;;;9.65;6.03;;;14.80;99.90;;;;;;15436318;23;20358;-38
2023/07/05 03:53:35;;;;;;;8.85;6.18;;;14.90;99.90;;;;;;15471274;22;20023;-38
2023/07/05 03:59:39;;;;;;;13.57;6.30;;;14.90;99.90;;;;;;15459369;23;20537;-38
2023/07/05 04:05:42;;;;;;;12.43;7.00;;;15.00;99.90;;;;;;15467942;23;20024;-38
2023/07/05 04:11:44;;;;;;;9.48;5.97;;;15.00;99.90;;;;;;15465781;22;20027;-38
2023/07/05 04:17:46;;;;;;;11.60;6.18;;;15.10;99.90;;;;;;15471227;23;20108;-39
2023/07/05 04:23:48;;;;;;;10.85;6.10;;;15.20;99.90;;;;;;15431429;22;20095;-38
2023/07/05 04:29:50;;;;;;;8.75;5.35;;;15.10;99.90;;;;;;15486080;23;20024;-39
2023/07/05 04:35:54;;;;;;;8.50;5.30;;;15.20;99.90;;;;;;15489726;22;20020;-38
2023/07/05 04:41:57;;;;;;;10.27;4.88;;;15.20;99.90;;;;;;15468987;23;20054;-39
2023/07/05 04:47:59;;;;;;;6.82;4.47;;;15.20;99.90;;;;;;15498210;23;20027;-38
2023/07/05 04:54:01;;;;;;;7.07;4.18;;;15.30;99.90;;;;;;15497361;22;20021;-37
2023/07/05 05:00:03;;;;;;;7.22;3.75;;;15.40;99.90;;;;;;15484086;22;20020;-38
2023/07/05 05:06:05;;;;;;;7.20;3.85;;;15.50;99.90;;;;;;15494013;23;20027;-38
2023/07/05 05:12:08;;;;;;;7.60;2.97;;;15.50;99.90;;;;;;15466012;22;20032;-38
2023/07/05 05:18:11;;;;;;;4.65;3.28;;;15.50;99.90;;;;;;15467529;23;20028;-38
2023/07/05 05:24:13;;;;;;;5.68;3.05;;;15.60;99.90;;;;;;15498129;22;20020;-37
2023/07/05 05:30:15;;;;;;;6.07;3.42;;;15.60;99.90;;;;;;15448400;23;20016;-38
2023/07/05 05:36:17;;;;;;;5.93;2.90;;;15.60;99.90;;;;;;15467937;23;20016;-38
2023/07/05 05:42:19;;;;;;;4.70;2.60;;;15.50;99.90;;;;;;15468243;23;20024;-37
2023/07/05 05:48:21;;;;;;;3.83;2.10;;;15.60;99.90;;;;;;15476143;23;20031;-37
2023/07/05 05:54:23;;;;;;;3.17;2.10;;;15.50;99.90;;;;;;15438927;23;20035;-37
2023/07/05 06:00:25;;;;;;;5.90;2.28;;;15.50;99.90;;;;;;15442318;23;20020;-38
2023/07/05 06:06:27;;;;;;;3.83;2.10;;;15.40;99.90;;;;;;15462625;23;20031;-38
2023/07/05 06:12:30;;;;;;;3.63;2.17;;;15.40;99.90;;;;;;15471949;23;20070;-38
2023/07/05 06:18:32;;;;;;;4.05;2.08;;;15.40;99.90;;;;;;15470118;23;20024;-38
2023/07/05 06:24:34;;;;;;;7.50;2.38;;;15.00;99.90;;;;;;15472463;22;20024;-40
2023/07/05 06:30:37;;;;;;;3.72;2.17;;;14.60;99.90;;;;;;15468480;23;20356;-38
2023/07/05 06:36:40;;;;;;;4.80;2.10;;;14.30;99.90;;;;;;15497272;23;20395;-39
2023/07/05 06:42:42;;;;;;;4.55;2.10;;;14.40;99.90;;;;;;15502193;23;20024;-38
2023/07/05 06:48:45;;;;;;;3.72;2.08;;;14.60;99.90;;;;;;15478653;23;20397;-38
2023/07/05 06:54:47;;;;;;;3.70;2.08;;;14.90;99.90;;;;;;15503628;23;20024;-38
2023/07/05 07:00:50;;;;;;;8.23;2.22;;;15.00;99.90;;;;;;15500436;22;20520;-40
2023/07/05 07:06:52;;;;;;;3.70;1.70;;;15.20;99.90;;;;;;15505121;23;20024;-40
2023/07/05 07:12:54;;;;;;;4.70;2.15;;;15.20;99.90;;;;;;15475295;23;20358;-40
2023/07/05 07:18:56;;;;;;;6.82;2.17;;;15.30;99.90;;;;;;15475124;23;20339;-41
2023/07/05 07:24:59;;;;;;;4.40;1.95;;;15.40;99.90;;;;;;15496160;23;20024;-39
2023/07/05 07:31:13;;;;;;;6.63;2.70;;;15.50;99.90;;;;;;15459997;22;20028;-38
2023/07/05 07:37:15;;;;;;;5.05;2.47;;;15.60;99.90;;;;;;15455119;23;20052;-39
2023/07/05 07:43:17;;;;;;;7.32;2.70;;;15.80;99.90;;;;;;15472080;22;20268;-38
2023/07/05 07:49:20;;;;;;;4.15;2.25;;;16.10;99.90;;;;;;15465763;23;20535;-38
2023/07/05 07:55:22;;;;;;;4.82;2.30;;;15.80;99.90;;;;;;15466551;22;20085;-38
2023/07/05 08:01:28;;;;;;;8.55;2.30;;;15.50;99.90;;;;;;15435233;22;20035;-39
2023/07/05 08:07:31;;;;;;;5.70;1.88;;;15.60;99.90;;;;;;15470922;22;20023;-39
2023/07/05 08:13:33;;;;;;;3.65;1.85;;;16.00;99.90;;;;;;15468313;22;20020;-38
2023/07/05 08:19:35;;;;;;;6.70;2.08;;;16.20;99.90;;;;;;15470543;22;20020;-37
2023/07/05 08:25:39;;;;;;;3.97;1.85;;;16.50;99.90;;;;;;15463329;22;20083;-41
2023/07/05 08:31:41;;;;;;;3.97;1.90;;;16.70;99.90;;;;;;15465346;23;20024;-37
2023/07/05 08:37:48;;;;;;;4.95;1.73;;;16.90;99.90;;;;;;15493396;23;20016;-37
2023/07/05 08:44:10;;;;;;;7.63;2.15;;;16.80;99.90;;;;;;15496607;23;20028;-38
2023/07/05 08:50:29;;;;;;;6.72;1.80;;;17.10;99.90;;;;;;15469975;23;20020;-37
2023/07/05 08:56:38;;;;;;;;;;;16.30;99.90;;;;;;15466799;23;20023;-38
2023/07/05 09:02:45;;;;;;;4.00;1.75;;;15.90;99.90;;;;;;15498623;22;20025;-38
2023/07/05 09:09:12;;;;;;;4.38;1.55;;;16.50;99.90;;;;;;15471779;23;20020;-38
2023/07/05 09:15:23;;;;;;;5.20;1.60;;;17.20;99.90;;;;;;15469767;23;20028;-37
2023/07/05 09:21:32;;;;;;;7.10;1.90;;;16.80;99.90;;;;;;15456204;23;20478;-36
2023/07/05 09:27:43;;;;;;;8.75;1.65;;;16.30;99.90;;;;;;15459950;23;20354;-39
2023/07/05 09:33:58;;;;;;;4.05;1.38;;;16.00;99.90;;;;;;15469269;22;20047;-38
2023/07/05 09:40:17;;;;;;;4.10;1.60;;;15.60;99.90;;;;;;15462708;23;20028;-38
2023/07/05 09:46:34;;;;;;;4.13;1.70;;;15.60;99.90;;;;;;15433100;23;20476;-37
2023/07/05 09:52:37;;;;;;;3.63;1.25;;;16.10;99.90;;;;;;15441175;23;20346;-38
2023/07/05 09:58:40;;;;;;;3.03;1.10;;;16.50;99.90;;;;;;15466398;22;20346;-39
2023/07/05 10:04:51;;;;;;;5.40;1.33;;;16.50;99.90;;;;;;15461161;22;20028;-39
2023/07/05 10:10:53;;;;;;;2.58;1.20;;;16.70;99.90;;;;;;15472874;23;20453;-38
2023/07/05 10:16:57;;;;;;;2.85;1.40;;;16.50;99.90;;;;;;15479154;23;20020;-37
2023/07/05 10:23:06;;;;;;;6.10;1.30;;;16.30;99.90;;;;;;15487859;23;20031;-39
2023/07/05 10:29:11;;;;;;;4.57;1.23;;;16.50;99.90;;;;;;15493355;23;20020;-37
2023/07/05 10:35:16;;;;;;;6.70;1.58;;;17.00;99.90;;;;;;15498617;22;20031;-38
2023/07/05 10:41:25;;;;;;;5.68;1.05;;;17.10;99.90;;;;;;15470548;23;20024;-38
2023/07/05 10:47:29;;;;;;;8.73;1.40;;;17.70;99.90;;;;;;15499444;23;20071;-39
2023/07/05 10:53:32;;;;;;;6.72;1.40;;;17.80;99.90;;;;;;15496637;22;20107;-38
2023/07/05 10:59:45;;;;;;;9.57;1.77;;;18.10;99.90;;;;;;15474611;23;20032;-38
2023/07/05 11:05:50;;;;;;;6.60;1.73;;;17.70;99.90;;;;;;15497042;23;20362;-38
2023/07/05 11:11:58;;;;;;;5.65;1.25;;;17.30;99.90;;;;;;15469199;23;20028;-38
2023/07/05 11:18:01;;;;;;;5.20;1.10;;;16.80;99.90;;;;;;15496833;23;20030;-39
2023/07/05 11:24:08;;;;;;;5.63;1.27;;;16.80;99.90;;;;;;15495408;22;20536;-38
2023/07/05 11:30:37;;;;;;;6.45;1.42;;;16.90;99.90;;;;;;15496354;23;20100;-38
2023/07/05 11:36:39;;;;;;;3.63;1.23;;;17.30;99.90;;;;;;15471788;22;20020;-38
2023/07/05 11:42:41;;;;;;;4.88;1.50;;;17.60;99.90;;;;;;15461400;23;20025;-39
2023/07/05 11:48:43;;;;;;;5.57;1.52;;;17.90;99.90;;;;;;15492703;23;20026;-39
2023/07/05 11:54:48;;;;;;;7.13;1.42;;;17.70;99.90;;;;;;15491905;23;20028;-40
2023/07/05 12:01:00;;;;;;;7.45;1.60;;;18.00;99.90;;;;;;15489609;22;20884;-39
2023/07/05 12:07:03;;;;;;;5.13;1.38;;;17.50;99.90;;;;;;15466995;23;20367;-40
2023/07/05 12:13:07;;;;;;;3.55;1.27;;;17.40;99.90;;;;;;15496464;22;20071;-42
2023/07/05 12:19:24;;;;;;;7.90;1.40;;;17.80;99.90;;;;;;15494731;22;20349;-40
2023/07/05 12:25:26;;;;;;;8.10;1.27;;;18.40;99.90;;;;;;15492877;22;20093;-40
2023/07/05 12:31:30;;;;;;;2.97;1.13;;;19.20;99.90;;;;;;15482797;23;20024;-39
2023/07/05 12:37:33;;;;;;;6.07;1.48;;;18.70;99.90;;;;;;15471074;23;20024;-39
2023/07/05 12:43:35;;;;;;;8.32;1.65;;;19.20;99.90;;;;;;15472599;23;20020;-38
2023/07/05 12:49:37;;;;;;;5.82;1.50;;;19.20;99.90;;;;;;15496420;23;20079;-39
2023/07/05 12:55:40;;;;;;;7.07;1.33;;;19.60;99.90;;;;;;15495979;22;20052;-39
2023/07/05 13:01:45;;;;;;;8.85;1.58;;;19.70;99.90;;;;;;15493176;22;20115;-39
2023/07/05 13:07:51;;;;;;;13.07;1.75;;;19.60;99.90;;;;;;15490825;23;20480;-39
2023/07/05 13:13:58;;;;;;;5.43;1.20;;;19.40;99.90;;;;;;15466482;22;20027;-39
2023/07/05 13:20:14;;;;;;;5.70;1.50;;;19.40;99.90;;;;;;15468201;23;20023;-39
2023/07/05 13:26:26;;;;;;;10.13;1.95;;;19.80;99.90;;;;;;15400394;23;20095;-40
2023/07/05 13:32:35;;;;;;;6.43;1.40;;;20.30;99.90;;;;;;15412495;23;20048;-39
2023/07/05 13:38:37;;;;;;;5.60;1.30;;;20.20;99.90;;;;;;15405817;23;20025;-38
2023/07/05 13:44:40;;;;;;;9.88;1.40;;;19.80;99.90;;;;;;15410526;23;20025;-39
2023/07/05 13:50:42;;;;;;;5.78;1.38;;;19.50;99.90;;;;;;15419241;23;20048;-39
2023/07/05 13:56:44;;;;;;;6.82;1.30;;;19.00;99.90;;;;;;15426363;23;20333;-39
2023/07/05 14:02:47;;;;;;;10.35;1.73;;;18.90;99.90;;;;;;15419920;23;20075;-40
2023/07/05 14:08:49;;;;;;;3.07;1.33;;;18.60;99.90;;;;;;15418189;23;20035;-39
2023/07/05 14:14:51;;;;;;;5.50;1.40;;;18.70;99.90;;;;;;15419247;23;20032;-38
2023/07/05 14:20:53;;;;;;;6.70;1.50;;;18.50;99.90;;;;;;15424698;23;20038;-39
2023/07/05 14:26:56;;;;;;;8.77;1.70;;;19.10;99.90;;;;;;15463296;23;20020;-40
2023/07/05 14:32:58;;;;;;;6.28;1.33;;;19.50;99.90;;;;;;15474533;22;20346;-39
2023/07/05 14:39:02;;;;;;;6.22;1.33;;;19.40;99.90;;;;;;15497961;23;20016;-38
2023/07/05 14:45:22;;;;;;;10.43;1.50;;;19.20;99.90;;;;;;15494023;23;20028;-40
2023/07/05 14:51:24;;;;;;;4.55;1.35;;;19.00;99.90;;;;;;15474693;23;20031;-38
2023/07/05 14:57:27;;;;;;;4.90;1.70;;;18.50;99.90;;;;;;15497597;23;20455;-38
2023/07/05 15:03:31;;;;;;;7.03;1.80;;;16.90;99.90;;;;;;15471399;23;20470;-38
2023/07/05 15:09:33;;;;;;;7.50;1.70;;;16.60;99.90;;;;;;15500012;23;20028;-38
2023/07/05 15:15:38;;;;;;;5.53;1.70;;;17.00;99.90;;;;;;15488489;22;20032;-39
2023/07/05 15:21:40;;;;;;;4.75;1.40;;;17.70;99.90;;;;;;15459962;23;20030;-39
2023/07/05 15:27:43;;;;;;;5.35;1.40;;;17.20;99.90;;;;;;15487174;22;20031;-38
2023/07/05 15:33:45;;;;;;;6.70;1.60;;;17.00;99.90;;;;;;15485689;22;20339;-38
2023/07/05 15:39:47;;;;;;;5.53;1.58;;;17.00;99.90;;;;;;15460857;23;20024;-38
2023/07/05 15:45:49;;;;;;;6.00;1.90;;;16.80;99.90;;;;;;15464210;23;20051;-38
2023/07/05 15:51:51;;;;;;;6.57;2.13;;;16.60;99.90;;;;;;15496951;23;20016;-39
2023/07/05 15:57:53;;;;;;;4.68;2.22;;;16.70;99.90;;;;;;15486668;23;20267;-37
2023/07/05 16:03:55;;;;;;;6.35;2.00;;;16.70;99.90;;;;;;15464328;23;20078;-38
2023/07/05 16:09:57;;;;;;;4.97;1.88;;;16.70;99.90;;;;;;15489689;23;20099;-38
2023/07/05 16:16:00;;;;;;;6.30;1.50;;;16.50;99.90;;;;;;15488680;22;20024;-39
2023/07/05 16:22:02;;;;;;;3.67;1.80;;;16.80;99.90;;;;;;15480347;22;20734;-38
2023/07/05 16:28:07;;;;;;;4.07;1.60;;;17.30;99.90;;;;;;15494616;22;20432;-38
2023/07/05 16:34:10;;;;;;;7.97;1.55;;;17.60;99.90;;;;;;15462263;23;20043;-39
2023/07/05 16:40:12;;;;;;;5.83;1.77;;;17.80;99.90;;;;;;15487541;22;20111;-39
2023/07/05 16:46:15;;;;;;;7.00;1.42;;;17.80;99.90;;;;;;15478704;23;20358;-39
2023/07/05 16:52:17;;;;;;;4.45;1.50;;;17.90;99.90;;;;;;15495445;23;20016;-39
2023/07/05 16:58:19;;;;;;;5.90;1.58;;;17.70;99.90;;;;;;15462536;23;20027;-39
2023/07/05 17:04:21;;;;;;;6.13;1.65;;;17.20;99.90;;;;;;15485674;22;20339;-39
2023/07/05 17:10:23;;;;;;;5.32;1.40;;;16.90;99.90;;;;;;15494710;22;20457;-39
2023/07/05 17:16:25;;;;;;;5.75;1.70;;;16.70;99.90;;;;;;15487937;23;20024;-39
2023/07/05 17:22:27;;;;;;;5.78;1.70;;;17.10;99.90;;;;;;15497860;23;20051;-38
2023/07/05 17:28:30;;;;;;;7.90;2.08;;;17.20;99.90;;;;;;15496105;22;20038;-38
2023/07/05 17:34:32;;;;;;;7.15;1.88;;;17.30;99.90;;;;;;15489538;23;20020;-38
2023/07/05 17:40:34;;;;;;;3.78;1.60;;;17.60;99.90;;;;;;15492239;23;20020;-38
2023/07/05 17:46:44;;;;;;;5.90;1.58;;;18.10;99.90;;;;;;15493723;23;20031;-38
2023/07/05 17:52:46;;;;;;;4.32;1.67;;;18.20;99.90;;;;;;15501790;23;20101;-40
2023/07/05 17:58:49;;;;;;;7.15;2.28;;;17.90;99.90;;;;;;15488904;23;20498;-39
2023/07/05 18:04:50;;;;;;;4.22;1.38;;;18.60;99.90;;;;;;15502960;23;20024;-39
2023/07/05 18:11:01;;;;;;;4.72;1.45;;;18.60;99.90;;;;;;15476042;23;20047;-40
2023/07/05 18:17:03;;;;;;;3.80;1.52;;;18.60;99.90;;;;;;15490680;23;20032;-39
2023/07/05 18:23:05;;;;;;;6.20;1.85;;;17.80;99.90;;;;;;15500000;22;20031;-39
2023/07/05 18:29:08;;;;;;;6.32;1.70;;;17.30;99.90;;;;;;15491095;23;20024;-37
2023/07/05 18:35:09;;;;;;;4.32;2.42;;;16.90;99.90;;;;;;15500371;23;20028;-38
2023/07/05 18:41:15;;;;;;;4.85;1.90;;;16.80;99.90;;;;;;15497572;22;20510;-38
2023/07/05 18:47:18;;;;;;;3.63;1.90;;;16.70;99.90;;;;;;15481912;23;20020;-39
2023/07/05 18:53:22;;;;;;;6.27;1.63;;;16.60;99.90;;;;;;15495260;23;20016;-39
2023/07/05 18:59:24;;;;;;;;;;;16.50;99.90;;;;;;15491959;23;20024;-38
2023/07/05 19:05:26;;;;;;;5.28;2.33;;;16.40;99.90;;;;;;15484457;23;19923;-39
2023/07/05 19:11:30;;;;;;;6.82;2.20;;;16.30;99.90;;;;;;15493354;23;20020;-38
2023/07/05 19:17:32;;;;;;;4.22;1.80;;;16.30;99.90;;;;;;15482670;23;20365;-38
2023/07/05 19:23:36;;;;;;;5.60;2.10;;;16.30;99.90;;;;;;15492438;22;20039;-38
2023/07/05 19:29:39;;;;;;;5.50;1.98;;;16.20;99.90;;;;;;15491764;22;20024;-38
2023/07/05 19:35:42;;;;;;;5.35;1.90;;;16.00;99.90;;;;;;15461687;23;20466;-38
2023/07/05 19:41:43;;;;;;;7.35;2.35;;;16.00;99.90;;;;;;15492576;22;20028;-40
2023/07/05 19:47:46;;;;;;;6.00;2.20;;;16.20;99.90;;;;;;15474807;23;20028;-38
2023/07/05 19:53:48;;;;;;;9.70;2.00;;;16.10;99.90;;;;;;15489845;22;20458;-38
2023/07/05 19:59:50;;;;;;;6.53;1.80;;;16.00;99.90;;;;;;15495798;23;20020;-38
2023/07/05 20:05:52;;;;;;;6.97;2.30;;;15.80;99.90;;;;;;15489249;23;20461;-39
2023/07/05 20:11:54;;;;;;;3.38;1.63;;;15.60;99.90;;;;;;15491699;23;20027;-38
2023/07/05 20:17:56;;;;;;;4.47;1.83;;;15.40;99.90;;;;;;15494637;23;20442;-38
2023/07/05 20:23:58;;;;;;;4.90;1.70;;;15.30;99.90;;;;;;15488738;23;20034;-38
2023/07/05 20:30:00;;;;;;;3.05;1.38;;;15.10;99.90;;;;;;15493033;23;20078;-38
2023/07/05 20:36:06;;;;;;;3.78;1.73;;;15.00;99.90;;;;;;15391748;23;20095;-38
2023/07/05 20:42:08;;;;;;;3.75;1.60;;;14.90;99.90;;;;;;15389015;23;20024;-37
2023/07/05 20:48:10;;;;;;;3.83;1.63;;;14.80;99.90;;;;;;15409694;23;20454;-37
2023/07/05 20:54:12;;;;;;;4.28;2.00;;;14.70;99.90;;;;;;15393671;23;20347;-37
2023/07/05 21:00:16;;;;;;;3.80;1.95;;;14.60;99.90;;;;;;15416095;23;20035;-38
2023/07/05 21:06:19;;;;;;;;;;;14.60;99.90;;;;;;15425592;23;20083;-38
2023/07/05 21:12:21;;;;;;;6.30;2.33;;;14.60;99.90;;;;;;15415684;23;19966;-37
2023/07/05 21:18:23;;;;;;;3.33;1.90;;;14.50;99.90;;;;;;15378293;23;20028;-39
2023/07/05 21:24:25;;;;;;;5.28;2.40;;;14.50;99.90;;;;;;15390966;23;20028;-37
2023/07/05 21:30:29;;;;;;;4.20;2.70;;;14.60;99.90;;;;;;15384667;23;20032;-37
2023/07/05 21:36:31;;;;;;;4.27;2.60;;;14.60;99.90;;;;;;15416172;23;20017;-38
2023/07/05 21:42:33;;;;;;;5.03;3.25;;;14.40;99.90;;;;;;15406036;23;20251;-37
2023/07/05 21:48:36;;;;;;;6.32;2.97;;;14.30;99.90;;;;;;15415651;23;20028;-38
2023/07/05 21:54:38;;;;;;;4.65;3.00;;;14.10;99.90;;;;;;15473880;23;20020;-37
2023/07/05 22:00:40;;;;;;;4.85;3.08;;;14.00;99.90;;;;;;15480885;23;20043;-38
2023/07/05 22:06:45;;;;;;;5.60;2.72;;;13.90;99.90;;;;;;15468903;23;20031;-38
2023/07/05 22:12:52;;;;;;;4.15;2.45;;;13.80;99.90;;;;;;15465512;23;20477;-38
2023/07/05 22:18:54;;;;;;;4.93;2.70;;;13.80;99.90;;;;;;15496277;23;20024;-39
2023/07/05 22:24:58;;;;;;;5.93;3.15;;;13.90;99.90;;;;;;15433338;23;20024;-39
2023/07/05 22:31:00;;;;;;;4.38;2.55;;;13.80;99.90;;;;;;15391043;23;20027;-37
2023/07/05 22:37:03;;;;;;;4.20;2.75;;;13.80;99.90;;;;;;15417829;23;20021;-38
2023/07/05 22:43:06;;;;;;;5.53;2.70;;;13.70;99.90;;;;;;15378025;23;20032;-37
2023/07/05 22:49:09;;;;;;;5.65;2.85;;;13.80;99.90;;;;;;15419409;23;20052;-38
2023/07/05 22:55:11;;;;;;;6.03;2.88;;;13.80;99.90;;;;;;15413317;23;20028;-37
2023/07/05 23:01:13;;;;;;;5.88;3.00;;;13.80;99.90;;;;;;15406872;23;20091;-38
2023/07/05 23:07:15;;;;;;;5.93;3.00;;;13.90;99.90;;;;;;15422214;23;20035;-37
2023/07/05 23:13:19;;;;;;;5.72;4.00;;;14.00;99.90;;;;;;15403871;23;20017;-38
2023/07/05 23:19:22;;;;;;;8.05;3.92;;;14.00;99.90;;;;;;15422948;23;20024;-38
2023/07/05 23:25:27;;;;;;;8.27;4.43;;;13.90;99.90;;;;;;15420174;23;20482;-38
2023/07/05 23:31:37;;;;;;;9.52;4.95;;;13.90;99.90;;;;;;15417312;23;20024;-37
2023/07/05 23:37:39;;;;;;;8.00;5.78;;;13.90;99.90;;;;;;15423412;23;20182;-38
2023/07/05 23:43:41;;;;;;;8.52;5.80;;;13.80;99.90;;;;;;15406409;23;20366;-37
2023/07/05 23:49:44;;;;;;;8.10;6.40;;;13.90;99.90;;;;;;15422740;23;20102;-38
2023/07/05 23:55:52;;;;;;;12.77;7.10;;;13.90;99.90;;;;;;15413574;23;20020;-37
